Time,TemperatureF,DewpointF,PressureIn,WindDirection,WindDirectionDegrees,WindSpeedMPH,WindSpeedGustMPH,Humidity,HourlyPrecipIn,Conditions,Clouds,dailyrainin,SoftwareType,DateUTC
2013-02-09 00:00:00,39.9,29.5,30.08,West,267,1.0,1.0,66,0.00,,,0.00,Wunderground v.1.15,2013-02-09 05:00:00,
2013-02-09 00:10:00,39.7,29.3,30.07,WNW,292,1.0,1.0,66,0.00,,,0.00,Wunderground v.1.15,2013-02-09 05:10:00,
2013-02-09 00:15:00,39.6,29.2,30.07,West,265,1.0,1.0,66,0.00,,,0.00,Wunderground v.1.15,2013-02-09 05:15:00,
2013-02-09 00:20:00,39.5,29.4,30.08,West,281,0.0,0.0,67,0.00,,,0.00,Wunderground v.1.15,2013-02-09 05:20:00,
2013-02-09 00:25:00,39.4,29.3,30.08,SW,229,0.0,1.0,67,0.00,,,0.00,Wunderground v.1.15,2013-02-09 05:25:00,
2013-02-09 00:30:00,39.2,29.2,30.07,West,270,0.0,0.0,67,0.00,,,0.00,Wunderground v.1.15,2013-02-09 05:30:00,
2013-02-09 00:35:00,39.1,29.1,30.07,NW,309,0.0,0.0,67,0.00,,,0.00,Wunderground v.1.15,2013-02-09 05:35:00,
2013-02-09 00:40:00,38.9,29.6,30.07,WNW,298,0.0,0.0,69,0.00,,,0.00,Wunderground v.1.15,2013-02-09 05:40:00,
2013-02-09 00:45:00,38.9,28.9,30.07,WNW,288,1.0,3.0,67,0.00,,,0.00,Wunderground v.1.15,2013-02-09 05:45:00,
2013-02-09 00:50:00,39.0,29.3,30.07,WSW,254,2.0,2.0,68,0.00,,,0.00,Wunderground v.1.15,2013-02-09 05:50:00,
2013-02-09 00:55:00,38.9,28.9,30.07,NW,325,1.0,4.0,67,0.00,,,0.00,Wunderground v.1.15,2013-02-09 05:55:00,
2013-02-09 01:00:00,38.8,28.8,30.08,WSW,245,1.0,3.0,67,0.00,,,0.00,Wunderground v.1.15,2013-02-09 06:00:00,
2013-02-09 01:05:00,38.9,28.5,30.08,NW,310,1.0,3.0,66,0.00,,,0.00,Wunderground v.1.15,2013-02-09 06:05:00,
2013-02-09 01:10:00,38.9,28.1,30.08,West,265,1.0,3.0,65,0.00,,,0.00,Wunderground v.1.15,2013-02-09 06:10:00,
2013-02-09 01:15:00,39.0,27.8,30.08,NW,311,2.0,4.0,64,0.00,,,0.00,Wunderground v.1.15,2013-02-09 06:15:00,
2013-02-09 01:20:00,39.0,27.5,30.08,West,277,2.0,2.0,63,0.00,,,0.00,Wunderground v.1.15,2013-02-09 06:20:00,
2013-02-09 01:25:00,38.9,27.8,30.08,NW,315,1.0,2.0,64,0.00,,,0.00,Wunderground v.1.15,2013-02-09 06:25:00,
2013-02-09 01:30:00,38.7,27.6,30.08,West,281,1.0,2.0,64,0.00,,,0.00,Wunderground v.1.15,2013-02-09 06:30:00,
2013-02-09 01:35:00,38.7,27.6,30.09,WNW,296,1.0,2.0,64,0.00,,,0.00,Wunderground v.1.15,2013-02-09 06:35:00,
2013-02-09 01:40:00,38.7,27.2,30.08,WNW,296,1.0,4.0,63,0.00,,,0.00,Wunderground v.1.15,2013-02-09 06:40:00,
2013-02-09 01:50:00,38.5,27.0,30.09,WNW,302,1.0,4.0,63,0.00,,,0.00,Wunderground v.1.15,2013-02-09 06:50:00,
2013-02-09 01:55:00,38.4,26.9,30.09,WNW,287,1.0,4.0,63,0.00,,,0.00,Wunderground v.1.15,2013-02-09 06:55:00,
2013-02-09 02:00:00,38.4,26.5,30.09,West,273,2.0,4.0,62,0.00,,,0.00,Wunderground v.1.15,2013-02-09 07:00:00,
2013-02-09 02:10:00,38.3,26.8,30.08,WSW,253,1.0,1.0,63,0.00,,,0.00,Wunderground v.1.15,2013-02-09 07:10:00,
2013-02-09 02:15:00,38.1,26.2,30.08,WNW,296,1.0,1.0,62,0.00,,,0.00,Wunderground v.1.15,2013-02-09 07:15:00,
2013-02-09 02:20:00,38.0,26.1,30.09,WNW,288,2.0,3.0,62,0.00,,,0.00,Wunderground v.1.15,2013-02-09 07:20:00,
2013-02-09 02:25:00,37.9,26.0,30.09,WNW,298,1.0,3.0,62,0.00,,,0.00,Wunderground v.1.15,2013-02-09 07:25:00,
2013-02-09 02:30:00,37.8,26.3,30.09,WNW,296,1.0,1.0,63,0.00,,,0.00,Wunderground v.1.15,2013-02-09 07:30:00,
2013-02-09 02:35:00,37.6,26.1,30.09,WNW,295,0.0,7.0,63,0.00,,,0.00,Wunderground v.1.15,2013-02-09 07:35:00,
2013-02-09 02:40:00,37.6,26.1,30.09,WNW,284,1.0,2.0,63,0.00,,,0.00,Wunderground v.1.15,2013-02-09 07:40:00,
2013-02-09 02:50:00,37.3,26.2,30.08,WNW,294,1.0,2.0,64,0.00,,,0.00,Wunderground v.1.15,2013-02-09 07:50:00,
2013-02-09 02:55:00,37.2,25.8,30.08,WNW,286,1.0,2.0,63,0.00,,,0.00,Wunderground v.1.15,2013-02-09 07:55:00,
2013-02-09 03:00:00,37.2,26.5,30.08,WNW,291,1.0,1.0,65,0.00,,,0.00,Wunderground v.1.15,2013-02-09 08:00:00,
2013-02-09 03:10:00,36.8,26.1,30.09,WNW,291,0.0,0.0,65,0.00,,,0.00,Wunderground v.1.15,2013-02-09 08:10:00,
2013-02-09 03:15:00,36.5,26.2,30.09,SSW,207,0.0,0.0,66,0.00,,,0.00,Wunderground v.1.15,2013-02-09 08:15:00,
2013-02-09 03:20:00,36.4,26.1,30.09,SSW,207,0.0,0.0,66,0.00,,,0.00,Wunderground v.1.15,2013-02-09 08:20:00,
2013-02-09 03:25:00,36.2,25.9,30.09,SSW,207,0.0,0.0,66,0.00,,,0.00,Wunderground v.1.15,2013-02-09 08:25:00,
2013-02-09 03:30:00,36.0,26.1,30.09,SSW,207,0.0,0.0,67,0.00,,,0.00,Wunderground v.1.15,2013-02-09 08:30:00,
2013-02-09 03:35:00,35.7,26.2,30.09,SSW,207,0.0,0.0,68,0.00,,,0.00,Wunderground v.1.15,2013-02-09 08:35:00,
2013-02-09 03:40:00,35.5,26.0,30.10,SSW,207,0.0,0.0,68,0.00,,,0.00,Wunderground v.1.15,2013-02-09 08:40:00,
2013-02-09 03:45:00,35.2,26.4,30.09,SSW,207,0.0,0.0,70,0.00,,,0.00,Wunderground v.1.15,2013-02-09 08:45:00,
2013-02-09 03:50:00,34.7,26.9,30.09,SSW,207,0.0,0.0,73,0.00,,,0.00,Wunderground v.1.15,2013-02-09 08:50:00,
2013-02-09 03:55:00,34.4,26.3,30.10,SSW,207,0.0,0.0,72,0.00,,,0.00,Wunderground v.1.15,2013-02-09 08:55:00,
2013-02-09 04:00:00,34.1,26.0,30.10,SW,219,0.0,0.0,72,0.00,,,0.00,Wunderground v.1.15,2013-02-09 09:00:00,
2013-02-09 04:05:00,34.0,26.3,30.10,SW,219,0.0,0.0,73,0.00,,,0.00,Wunderground v.1.15,2013-02-09 09:05:00,
2013-02-09 04:10:00,33.8,25.7,30.11,South,185,0.0,0.0,72,0.00,,,0.00,Wunderground v.1.15,2013-02-09 09:10:00,
2013-02-09 04:15:00,33.6,25.5,30.11,WSW,240,0.0,0.0,72,0.00,,,0.00,Wunderground v.1.15,2013-02-09 09:15:00,
2013-02-09 04:20:00,33.5,25.8,30.12,WSW,240,0.0,0.0,73,0.00,,,0.00,Wunderground v.1.15,2013-02-09 09:20:00,
2013-02-09 04:25:00,33.4,26.0,30.12,WSW,240,0.0,0.0,74,0.00,,,0.00,Wunderground v.1.15,2013-02-09 09:25:00,
2013-02-09 04:30:00,33.1,26.4,30.12,WSW,240,0.0,0.0,76,0.00,,,0.00,Wunderground v.1.15,2013-02-09 09:30:00,
2013-02-09 04:35:00,33.0,25.9,30.12,WSW,240,0.0,0.0,75,0.00,,,0.00,Wunderground v.1.15,2013-02-09 09:35:00,
2013-02-09 04:40:00,32.9,25.8,30.13,WSW,240,0.0,0.0,75,0.00,,,0.00,Wunderground v.1.15,2013-02-09 09:40:00,
2013-02-09 04:45:00,32.9,25.8,30.14,WSW,240,0.0,0.0,75,0.00,,,0.00,Wunderground v.1.15,2013-02-09 09:45:00,
2013-02-09 04:50:00,32.8,25.7,30.14,WSW,240,0.0,0.0,75,0.00,,,0.00,Wunderground v.1.15,2013-02-09 09:50:00,
2013-02-09 04:55:00,32.7,26.0,30.14,WSW,240,0.0,0.0,76,0.00,,,0.00,Wunderground v.1.15,2013-02-09 09:55:00,
2013-02-09 05:00:00,32.5,25.8,30.14,WSW,240,0.0,0.0,76,0.00,,,0.00,Wunderground v.1.15,2013-02-09 10:00:00,
2013-02-09 05:05:00,32.3,25.6,30.15,WSW,240,0.0,0.0,76,0.00,,,0.00,Wunderground v.1.15,2013-02-09 10:05:00,
2013-02-09 05:10:00,32.1,25.7,30.15,WSW,240,0.0,0.0,77,0.00,,,0.00,Wunderground v.1.15,2013-02-09 10:10:00,
2013-02-09 05:15:00,31.9,25.5,30.15,WSW,240,0.0,0.0,77,0.00,,,0.00,Wunderground v.1.15,2013-02-09 10:15:00,
2013-02-09 05:20:00,31.6,25.5,30.15,WSW,240,0.0,0.0,78,0.00,,,0.00,Wunderground v.1.15,2013-02-09 10:20:00,
2013-02-09 05:25:00,31.5,25.4,30.16,WSW,240,0.0,0.0,78,0.00,,,0.00,Wunderground v.1.15,2013-02-09 10:25:00,
2013-02-09 05:30:00,31.5,25.7,30.16,WSW,240,0.0,0.0,79,0.00,,,0.00,Wunderground v.1.15,2013-02-09 10:30:00,
2013-02-09 05:35:00,31.4,25.9,30.16,WSW,240,0.0,0.0,80,0.00,,,0.00,Wunderground v.1.15,2013-02-09 10:35:00,
2013-02-09 05:40:00,31.0,25.9,30.16,WSW,240,0.0,0.0,81,0.00,,,0.00,Wunderground v.1.15,2013-02-09 10:40:00,
2013-02-09 05:50:00,30.4,25.9,30.17,WSW,242,0.0,0.0,83,0.00,,,0.00,Wunderground v.1.15,2013-02-09 10:50:00,
2013-02-09 05:55:00,30.3,25.8,30.17,WSW,242,0.0,0.0,83,0.00,,,0.00,Wunderground v.1.15,2013-02-09 10:55:00,
2013-02-09 06:00:00,30.3,25.8,30.17,WSW,242,0.0,0.0,83,0.00,,,0.00,Wunderground v.1.15,2013-02-09 11:00:00,
2013-02-09 06:05:00,30.4,25.6,30.18,WSW,242,0.0,0.0,82,0.00,,,0.00,Wunderground v.1.15,2013-02-09 11:05:00,
2013-02-09 06:10:00,30.5,25.7,30.18,WSW,242,0.0,0.0,82,0.00,,,0.00,Wunderground v.1.15,2013-02-09 11:10:00,
2013-02-09 06:15:00,30.6,25.5,30.18,WSW,242,0.0,0.0,81,0.00,,,0.00,Wunderground v.1.15,2013-02-09 11:15:00,
2013-02-09 06:20:00,30.7,25.6,30.19,WSW,242,0.0,0.0,81,0.00,,,0.00,Wunderground v.1.15,2013-02-09 11:20:00,
2013-02-09 06:25:00,30.7,25.6,30.19,WSW,242,0.0,0.0,81,0.00,,,0.00,Wunderground v.1.15,2013-02-09 11:25:00,
2013-02-09 06:30:00,30.6,25.5,30.19,WSW,242,0.0,0.0,81,0.00,,,0.00,Wunderground v.1.15,2013-02-09 11:30:00,
2013-02-09 06:35:00,30.6,25.5,30.20,WSW,242,0.0,0.0,81,0.00,,,0.00,Wunderground v.1.15,2013-02-09 11:35:00,
2013-02-09 06:40:00,30.7,25.6,30.20,WSW,242,0.0,0.0,81,0.00,,,0.00,Wunderground v.1.15,2013-02-09 11:40:00,
2013-02-09 06:45:00,30.6,25.2,30.20,WSW,242,0.0,0.0,80,0.00,,,0.00,Wunderground v.1.15,2013-02-09 11:45:00,
2013-02-09 06:50:00,30.5,25.4,30.20,WSW,242,0.0,0.0,81,0.00,,,0.00,Wunderground v.1.15,2013-02-09 11:50:00,
2013-02-09 06:55:00,30.5,25.4,30.21,WSW,242,0.0,0.0,81,0.00,,,0.00,Wunderground v.1.15,2013-02-09 11:55:00,
2013-02-09 07:00:00,30.3,25.8,30.21,WSW,242,0.0,0.0,83,0.00,,,0.00,Wunderground v.1.15,2013-02-09 12:00:00,
2013-02-09 07:10:00,29.8,25.6,30.22,WSW,242,0.0,0.0,84,0.00,,,0.00,Wunderground v.1.15,2013-02-09 12:10:00,
2013-02-09 07:15:00,29.7,25.5,30.22,SSW,196,0.0,0.0,84,0.00,,,0.00,Wunderground v.1.15,2013-02-09 12:15:00,
2013-02-09 07:20:00,29.8,25.3,30.23,SSW,196,0.0,0.0,83,0.00,,,0.00,Wunderground v.1.15,2013-02-09 12:20:00,
2013-02-09 07:30:00,30.1,25.6,30.23,SSW,196,0.0,0.0,83,0.00,,,0.00,Wunderground v.1.15,2013-02-09 12:30:00,
2013-02-09 07:40:00,30.1,25.3,30.24,SSW,196,0.0,0.0,82,0.00,,,0.00,Wunderground v.1.15,2013-02-09 12:40:00,
2013-02-09 07:45:00,30.3,25.5,30.25,SSW,196,0.0,0.0,82,0.00,,,0.00,Wunderground v.1.15,2013-02-09 12:45:00,
2013-02-09 07:50:00,30.6,25.5,30.25,SSW,196,0.0,0.0,81,0.00,,,0.00,Wunderground v.1.15,2013-02-09 12:50:00,
2013-02-09 07:55:00,30.8,26.2,30.25,SSW,196,0.0,0.0,83,0.00,,,0.00,Wunderground v.1.15,2013-02-09 12:55:00,
2013-02-09 08:00:00,30.6,26.3,30.25,SSW,196,0.0,0.0,84,0.00,,,0.00,Wunderground v.1.15,2013-02-09 13:00:00,
2013-02-09 08:10:00,30.5,25.7,30.26,WNW,300,0.0,0.0,82,0.00,,,0.00,Wunderground v.1.15,2013-02-09 13:10:00,
2013-02-09 08:15:00,31.0,26.1,30.26,WNW,300,0.0,0.0,82,0.00,,,0.00,Wunderground v.1.15,2013-02-09 13:15:00,
2013-02-09 08:20:00,31.7,26.5,30.26,SSW,200,0.0,0.0,81,0.00,,,0.00,Wunderground v.1.15,2013-02-09 13:20:00,
2013-02-09 08:25:00,32.1,26.3,30.27,WNW,284,0.0,0.0,79,0.00,,,0.00,Wunderground v.1.15,2013-02-09 13:25:00,
2013-02-09 08:30:00,32.8,26.1,30.27,SSW,205,0.0,0.0,76,0.00,,,0.00,Wunderground v.1.15,2013-02-09 13:30:00,
2013-02-09 08:35:00,33.4,26.6,30.27,SW,224,0.0,0.0,76,0.00,,,0.00,Wunderground v.1.15,2013-02-09 13:35:00,
2013-02-09 08:40:00,34.1,26.0,30.27,WSW,252,0.0,2.0,72,0.00,,,0.00,Wunderground v.1.15,2013-02-09 13:40:00,
2013-02-09 08:50:00,35.2,25.3,30.28,West,259,0.0,0.0,67,0.00,,,0.00,Wunderground v.1.15,2013-02-09 13:50:00,
2013-02-09 08:55:00,35.7,25.8,30.28,West,263,1.0,1.0,67,0.00,,,0.00,Wunderground v.1.15,2013-02-09 13:55:00,
2013-02-09 09:00:00,36.1,25.5,30.28,South,174,1.0,1.0,65,0.00,,,0.00,Wunderground v.1.15,2013-02-09 14:00:00,
2013-02-09 09:05:00,36.5,24.7,30.29,NW,309,1.0,1.0,62,0.00,,,0.00,Wunderground v.1.15,2013-02-09 14:05:00,
2013-02-09 09:10:00,36.9,24.7,30.29,West,279,1.0,1.0,61,0.00,,,0.00,Wunderground v.1.15,2013-02-09 14:10:00,
2013-02-09 09:15:00,37.2,24.6,30.29,WSW,248,1.0,2.0,60,0.00,,,0.00,Wunderground v.1.15,2013-02-09 14:15:00,
2013-02-09 09:20:00,37.5,23.6,30.29,WNW,292,1.0,2.0,57,0.00,,,0.00,Wunderground v.1.15,2013-02-09 14:20:00,
2013-02-09 09:25:00,37.7,23.4,30.29,WSW,248,2.0,4.0,56,0.00,,,0.00,Wunderground v.1.15,2013-02-09 14:25:00,
2013-02-09 09:30:00,38.0,24.1,30.29,West,264,2.0,2.0,57,0.00,,,0.00,Wunderground v.1.15,2013-02-09 14:30:00,
2013-02-09 09:35:00,38.2,23.9,30.29,WSW,254,2.0,3.0,56,0.00,,,0.00,Wunderground v.1.15,2013-02-09 14:35:00,
2013-02-09 09:40:00,38.6,23.8,30.30,West,265,2.0,2.0,55,0.00,,,0.00,Wunderground v.1.15,2013-02-09 14:40:00,
2013-02-09 09:50:00,39.5,24.2,30.30,West,259,1.0,1.0,54,0.00,,,0.00,Wunderground v.1.15,2013-02-09 14:50:00,
2013-02-09 10:00:00,40.0,23.3,30.30,WNW,284,2.0,3.0,51,0.00,,,0.01,Wunderground v.1.15,2013-02-09 15:00:00,
2013-02-09 10:05:00,40.4,23.2,30.30,WSW,252,2.0,3.0,50,0.00,,,0.01,Wunderground v.1.15,2013-02-09 15:05:00,
2013-02-09 10:10:00,40.7,23.5,30.30,West,275,1.0,2.0,50,0.00,,,0.01,Wunderground v.1.15,2013-02-09 15:10:00,
2013-02-09 10:20:00,41.3,22.6,30.30,WNW,294,2.0,2.0,47,0.00,,,0.01,Wunderground v.1.15,2013-02-09 15:20:00,
2013-02-09 10:25:00,41.4,22.7,30.31,WNW,293,2.0,3.0,47,0.00,,,0.01,Wunderground v.1.15,2013-02-09 15:25:00,
2013-02-09 10:30:00,41.7,21.9,30.31,WSW,244,2.0,2.0,45,0.00,,,0.01,Wunderground v.1.15,2013-02-09 15:30:00,
2013-02-09 10:40:00,41.9,21.5,30.31,WNW,290,2.0,4.0,44,0.00,,,0.01,Wunderground v.1.15,2013-02-09 15:40:00,
2013-02-09 10:45:00,42.0,22.2,30.31,WNW,295,2.0,4.0,45,0.00,,,0.01,Wunderground v.1.15,2013-02-09 15:45:00,
2013-02-09 10:50:00,42.7,22.8,30.32,NNW,345,1.0,5.0,45,0.00,,,0.01,Wunderground v.1.15,2013-02-09 15:50:00,
2013-02-09 10:55:00,42.9,21.4,30.32,North,5,1.0,5.0,42,0.00,,,0.01,Wunderground v.1.15,2013-02-09 15:55:00,
2013-02-09 11:00:00,43.1,21.0,30.32,NE,44,2.0,2.0,41,0.00,,,0.01,Wunderground v.1.15,2013-02-09 16:00:00,
2013-02-09 11:05:00,43.3,22.3,30.31,West,273,1.0,3.0,43,0.00,,,0.01,Wunderground v.1.15,2013-02-09 16:05:00,
2013-02-09 11:10:00,43.2,22.2,30.32,WSW,257,1.0,2.0,43,0.00,,,0.01,Wunderground v.1.15,2013-02-09 16:10:00,
2013-02-09 11:15:00,43.4,22.4,30.32,South,175,2.0,5.0,43,0.00,,,0.01,Wunderground v.1.15,2013-02-09 16:15:00,
2013-02-09 11:20:00,43.5,21.3,30.32,WNW,290,2.0,2.0,41,0.00,,,0.01,Wunderground v.1.15,2013-02-09 16:20:00,
2013-02-09 11:30:00,44.3,21.5,30.32,SSE,157,1.0,1.0,40,0.00,,,0.02,Wunderground v.1.15,2013-02-09 16:30:00,
2013-02-09 11:40:00,44.5,21.0,30.32,West,259,1.0,1.0,39,0.00,,,0.02,Wunderground v.1.15,2013-02-09 16:40:00,
2013-02-09 11:45:00,44.7,22.4,30.31,West,261,1.0,1.0,41,0.00,,,0.02,Wunderground v.1.15,2013-02-09 16:45:00,
2013-02-09 11:50:00,45.1,21.6,30.31,WSW,246,1.0,1.0,39,0.00,,,0.02,Wunderground v.1.15,2013-02-09 16:50:00,
2013-02-09 12:00:00,45.8,20.3,30.32,NW,320,1.0,2.0,36,0.00,,,0.02,Wunderground v.1.15,2013-02-09 17:00:00,
2013-02-09 12:05:00,46.1,20.6,30.31,NW,317,1.0,2.0,36,0.00,,,0.02,Wunderground v.1.15,2013-02-09 17:05:00,
2013-02-09 12:10:00,46.4,22.1,30.31,NNW,343,0.0,0.0,38,0.00,,,0.02,Wunderground v.1.15,2013-02-09 17:10:00,
2013-02-09 12:15:00,46.3,20.8,30.31,West,263,1.0,3.0,36,0.00,,,0.02,Wunderground v.1.15,2013-02-09 17:15:00,
2013-02-09 12:20:00,46.3,21.4,30.31,WNW,287,1.0,1.0,37,0.00,,,0.02,Wunderground v.1.15,2013-02-09 17:20:00,
2013-02-09 12:30:00,46.5,20.3,30.31,WNW,283,1.0,1.0,35,0.00,,,0.02,Wunderground v.1.15,2013-02-09 17:30:00,
2013-02-09 12:35:00,46.8,21.2,30.31,NW,315,1.0,3.0,36,0.00,,,0.02,Wunderground v.1.15,2013-02-09 17:35:00,
2013-02-09 12:40:00,47.0,20.0,30.31,West,265,1.0,1.0,34,0.00,,,0.02,Wunderground v.1.15,2013-02-09 17:40:00,
2013-02-09 12:45:00,47.2,20.9,30.31,SE,146,1.0,1.0,35,0.00,,,0.02,Wunderground v.1.15,2013-02-09 17:45:00,
2013-02-09 12:50:00,47.4,21.7,30.31,West,266,1.0,1.0,36,0.00,,,0.02,Wunderground v.1.15,2013-02-09 17:50:00,
2013-02-09 12:55:00,47.4,21.7,30.30,WNW,294,1.0,2.0,36,0.00,,,0.02,Wunderground v.1.15,2013-02-09 17:55:00,
2013-02-09 13:00:00,47.7,22.7,30.30,WSW,240,1.0,1.0,37,0.00,,,0.02,Wunderground v.1.15,2013-02-09 18:00:00,
2013-02-09 13:10:00,47.4,21.1,30.30,NW,313,2.0,2.0,35,0.00,,,0.02,Wunderground v.1.15,2013-02-09 18:10:00,
2013-02-09 13:15:00,47.4,19.7,30.30,WNW,295,1.0,2.0,33,0.00,,,0.02,Wunderground v.1.15,2013-02-09 18:15:00,
2013-02-09 13:20:00,47.9,20.8,30.30,NNW,342,1.0,1.0,34,0.00,,,0.02,Wunderground v.1.15,2013-02-09 18:20:00,
2013-02-09 13:25:00,48.0,20.9,30.30,SW,233,1.0,2.0,34,0.00,,,0.02,Wunderground v.1.15,2013-02-09 18:25:00,
2013-02-09 13:30:00,47.7,20.7,30.30,West,268,2.0,2.0,34,0.00,,,0.02,Wunderground v.1.15,2013-02-09 18:30:00,
2013-02-09 13:35:00,47.6,19.9,30.29,SW,216,1.0,2.0,33,0.00,,,0.02,Wunderground v.1.15,2013-02-09 18:35:00,
2013-02-09 13:40:00,47.5,20.5,30.29,WSW,248,1.0,1.0,34,0.00,,,0.02,Wunderground v.1.15,2013-02-09 18:40:00,
2013-02-09 13:50:00,48.2,20.4,30.29,West,269,1.0,4.0,33,0.00,,,0.02,Wunderground v.1.15,2013-02-09 18:50:00,
2013-02-09 14:00:00,48.6,19.3,30.29,WNW,297,2.0,2.0,31,0.00,,,0.02,Wunderground v.1.15,2013-02-09 19:00:00,
2013-02-09 14:10:00,48.9,21.0,30.29,WSW,258,0.0,2.0,33,0.00,,,0.02,Wunderground v.1.15,2013-02-09 19:10:00,
2013-02-09 14:15:00,49.2,19.8,30.29,WNW,296,1.0,3.0,31,0.00,,,0.02,Wunderground v.1.15,2013-02-09 19:15:00,
2013-02-09 14:20:00,49.2,21.3,30.28,WNW,296,1.0,1.0,33,0.00,,,0.02,Wunderground v.1.15,2013-02-09 19:20:00,
2013-02-09 14:25:00,49.2,20.6,30.28,SW,219,1.0,1.0,32,0.00,,,0.02,Wunderground v.1.15,2013-02-09 19:25:00,
2013-02-09 14:30:00,49.3,19.9,30.28,WNW,300,1.0,1.0,31,0.00,,,0.02,Wunderground v.1.15,2013-02-09 19:30:00,
2013-02-09 14:40:00,49.7,21.0,30.28,WNW,293,1.0,1.0,32,0.00,,,0.02,Wunderground v.1.15,2013-02-09 19:40:00,
2013-02-09 14:45:00,49.9,20.4,30.28,NNW,336,0.0,1.0,31,0.00,,,0.02,Wunderground v.1.15,2013-02-09 19:45:00,
2013-02-09 14:50:00,50.1,20.6,30.28,West,281,1.0,1.0,31,0.00,,,0.02,Wunderground v.1.15,2013-02-09 19:50:00,
2013-02-09 15:00:00,49.7,21.7,30.28,WSW,256,1.0,2.0,33,0.00,,,0.02,Wunderground v.1.15,2013-02-09 20:00:00,
2013-02-09 15:05:00,49.9,19.7,30.28,WNW,291,1.0,2.0,30,0.00,,,0.02,Wunderground v.1.15,2013-02-09 20:05:00,
2013-02-09 15:10:00,50.0,18.9,30.28,WNW,296,1.0,1.0,29,0.00,,,0.02,Wunderground v.1.15,2013-02-09 20:10:00,
2013-02-09 15:20:00,50.2,19.1,30.29,West,262,1.0,4.0,29,0.00,,,0.02,Wunderground v.1.15,2013-02-09 20:20:00,
2013-02-09 15:30:00,50.1,19.8,30.29,WNW,289,1.0,1.0,30,0.00,,,0.02,Wunderground v.1.15,2013-02-09 20:30:00,
2013-02-09 15:35:00,50.3,20.8,30.29,West,261,1.0,1.0,31,0.00,,,0.02,Wunderground v.1.15,2013-02-09 20:35:00,
2013-02-09 15:40:00,50.4,19.3,30.29,SW,234,1.0,3.0,29,0.00,,,0.02,Wunderground v.1.15,2013-02-09 20:40:00,
2013-02-09 15:45:00,50.5,20.2,30.29,WNW,284,1.0,3.0,30,0.00,,,0.02,Wunderground v.1.15,2013-02-09 20:45:00,
2013-02-09 15:50:00,50.5,20.2,30.29,WNW,284,0.0,0.0,30,0.00,,,0.02,Wunderground v.1.15,2013-02-09 20:50:00,
2013-02-09 16:00:00,49.9,18.9,30.28,NNW,329,1.0,1.0,29,0.00,,,0.02,Wunderground v.1.15,2013-02-09 21:00:00,
2013-02-09 16:05:00,49.7,18.7,30.28,NW,309,0.0,1.0,29,0.00,,,0.02,Wunderground v.1.15,2013-02-09 21:05:00,
2013-02-09 16:10:00,49.6,18.6,30.28,WNW,285,0.0,0.0,29,0.00,,,0.02,Wunderground v.1.15,2013-02-09 21:10:00,
2013-02-09 16:15:00,49.6,18.6,30.28,WNW,285,0.0,1.0,29,0.00,,,0.02,Wunderground v.1.15,2013-02-09 21:15:00,
2013-02-09 16:20:00,49.6,18.6,30.29,WNW,285,0.0,0.0,29,0.00,,,0.02,Wunderground v.1.15,2013-02-09 21:20:00,
2013-02-09 16:25:00,49.6,18.6,30.29,WNW,285,0.0,0.0,29,0.00,,,0.02,Wunderground v.1.15,2013-02-09 21:25:00,
2013-02-09 16:30:00,49.4,19.2,30.29,West,276,1.0,3.0,30,0.00,,,0.02,Wunderground v.1.15,2013-02-09 21:30:00,
2013-02-09 16:35:00,49.4,18.4,30.29,WNW,292,1.0,3.0,29,0.00,,,0.02,Wunderground v.1.15,2013-02-09 21:35:00,
2013-02-09 16:40:00,49.3,19.1,30.30,West,273,1.0,1.0,30,0.00,,,0.02,Wunderground v.1.15,2013-02-09 21:40:00,
2013-02-09 16:45:00,49.3,19.1,30.30,SSW,202,1.0,1.0,30,0.00,,,0.02,Wunderground v.1.15,2013-02-09 21:45:00,
2013-02-09 16:50:00,49.2,19.8,30.30,South,173,0.0,0.0,31,0.00,,,0.02,Wunderground v.1.15,2013-02-09 21:50:00,
2013-02-09 17:00:00,49.1,20.5,30.30,SSE,165,0.0,0.0,32,0.00,,,0.02,Wunderground v.1.15,2013-02-09 22:00:00,
2013-02-09 17:10:00,48.7,20.8,30.31,SSW,194,0.0,0.0,33,0.00,,,0.02,Wunderground v.1.15,2013-02-09 22:10:00,
2013-02-09 17:15:00,48.4,21.3,30.31,SSW,194,0.0,0.0,34,0.00,,,0.02,Wunderground v.1.15,2013-02-09 22:15:00,
2013-02-09 17:20:00,48.2,19.7,30.31,WNW,289,0.0,0.0,32,0.00,,,0.02,Wunderground v.1.15,2013-02-09 22:20:00,
2013-02-09 17:25:00,48.1,21.7,30.31,WNW,289,0.0,0.0,35,0.00,,,0.02,Wunderground v.1.15,2013-02-09 22:25:00,
2013-02-09 17:30:00,47.9,20.1,30.31,WNW,289,0.0,0.0,33,0.00,,,0.02,Wunderground v.1.15,2013-02-09 22:30:00,
2013-02-09 17:35:00,47.7,20.0,30.31,WNW,290,0.0,0.0,33,0.00,,,0.02,Wunderground v.1.15,2013-02-09 22:35:00,
2013-02-09 17:40:00,47.4,21.1,30.31,WNW,290,0.0,0.0,35,0.00,,,0.02,Wunderground v.1.15,2013-02-09 22:40:00,
2013-02-09 17:45:00,46.9,22.0,30.32,WNW,290,0.0,0.0,37,0.00,,,0.02,Wunderground v.1.15,2013-02-09 22:45:00,
2013-02-09 17:50:00,46.4,21.5,30.31,WNW,290,0.0,0.0,37,0.00,,,0.02,Wunderground v.1.15,2013-02-09 22:50:00,
2013-02-09 17:55:00,46.0,22.4,30.31,WNW,290,0.0,0.0,39,0.00,,,0.02,Wunderground v.1.15,2013-02-09 22:55:00,
2013-02-09 18:00:00,45.5,22.5,30.31,WNW,290,0.0,0.0,40,0.00,,,0.02,Wunderground v.1.15,2013-02-09 23:00:00,
2013-02-09 18:05:00,45.0,22.7,30.32,WNW,290,0.0,0.0,41,0.00,,,0.02,Wunderground v.1.15,2013-02-09 23:05:00,
2013-02-09 18:10:00,44.5,22.2,30.32,WNW,290,0.0,0.0,41,0.00,,,0.02,Wunderground v.1.15,2013-02-09 23:10:00,
2013-02-09 18:15:00,44.0,22.4,30.32,WNW,290,0.0,0.0,42,0.00,,,0.02,Wunderground v.1.15,2013-02-09 23:15:00,
2013-02-09 18:20:00,43.5,21.9,30.32,WNW,290,0.0,0.0,42,0.00,,,0.02,Wunderground v.1.15,2013-02-09 23:20:00,
2013-02-09 18:30:00,42.5,23.2,30.32,WNW,290,0.0,0.0,46,0.00,,,0.02,Wunderground v.1.15,2013-02-09 23:30:00,
2013-02-09 18:35:00,41.9,23.1,30.32,WNW,290,0.0,0.0,47,0.00,,,0.02,Wunderground v.1.15,2013-02-09 23:35:00,
2013-02-09 18:40:00,41.3,22.1,30.32,WNW,290,0.0,0.0,46,0.00,,,0.02,Wunderground v.1.15,2013-02-09 23:40:00,
2013-02-09 18:50:00,40.0,22.8,30.32,WNW,290,0.0,0.0,50,0.00,,,0.02,Wunderground v.1.15,2013-02-09 23:50:00,
2013-02-09 19:00:00,38.9,23.7,30.33,WNW,290,0.0,0.0,54,0.00,,,0.02,Wunderground v.1.15,2013-02-10 00:00:00,
2013-02-09 19:05:00,38.5,23.3,30.33,WNW,290,0.0,0.0,54,0.00,,,0.02,Wunderground v.1.15,2013-02-10 00:05:00,
2013-02-09 19:10:00,38.2,23.4,30.33,WNW,290,0.0,0.0,55,0.00,,,0.02,Wunderground v.1.15,2013-02-10 00:10:00,
2013-02-09 19:15:00,37.9,23.2,30.33,WNW,290,0.0,0.0,55,0.00,,,0.02,Wunderground v.1.15,2013-02-10 00:15:00,
2013-02-09 19:20:00,37.6,22.0,30.33,WNW,290,0.0,0.0,53,0.00,,,0.02,Wunderground v.1.15,2013-02-10 00:20:00,
2013-02-09 19:25:00,37.4,22.3,30.34,WNW,290,0.0,0.0,54,0.00,,,0.02,Wunderground v.1.15,2013-02-10 00:25:00,
2013-02-09 19:35:00,37.0,23.2,30.34,WNW,290,0.0,0.0,57,0.00,,,0.02,Wunderground v.1.15,2013-02-10 00:35:00,
2013-02-09 19:40:00,36.7,22.0,30.34,WNW,290,0.0,0.0,55,0.00,,,0.02,Wunderground v.1.15,2013-02-10 00:40:00,
2013-02-09 19:45:00,36.3,21.7,30.35,WNW,290,0.0,0.0,55,0.00,,,0.02,Wunderground v.1.15,2013-02-10 00:45:00,
2013-02-09 19:50:00,36.2,21.1,30.35,WNW,290,0.0,0.0,54,0.00,,,0.02,Wunderground v.1.15,2013-02-10 00:50:00,
2013-02-09 19:55:00,36.0,23.0,30.34,WNW,290,0.0,0.0,59,0.00,,,0.02,Wunderground v.1.15,2013-02-10 00:55:00,
2013-02-09 20:00:00,35.7,22.4,30.35,WNW,290,0.0,0.0,58,0.00,,,0.02,Wunderground v.1.15,2013-02-10 01:00:00,
2013-02-09 20:10:00,35.0,22.1,30.35,WNW,290,0.0,0.0,59,0.00,,,0.02,Wunderground v.1.15,2013-02-10 01:10:00,
2013-02-09 20:15:00,34.8,21.9,30.35,WNW,290,0.0,0.0,59,0.00,,,0.02,Wunderground v.1.15,2013-02-10 01:15:00,
2013-02-09 20:20:00,34.5,23.9,30.35,WNW,290,0.0,0.0,65,0.00,,,0.02,Wunderground v.1.15,2013-02-10 01:20:00,
2013-02-09 20:25:00,34.3,22.6,30.36,WNW,290,0.0,0.0,62,0.00,,,0.02,Wunderground v.1.15,2013-02-10 01:25:00,
2013-02-09 20:30:00,34.1,23.2,30.36,WNW,290,0.0,0.0,64,0.00,,,0.02,Wunderground v.1.15,2013-02-10 01:30:00,
2013-02-09 20:35:00,33.9,22.2,30.36,WNW,290,0.0,0.0,62,0.00,,,0.02,Wunderground v.1.15,2013-02-10 01:35:00,
2013-02-09 20:40:00,33.7,24.3,30.36,WNW,290,0.0,0.0,68,0.00,,,0.02,Wunderground v.1.15,2013-02-10 01:40:00,
2013-02-09 20:45:00,33.4,22.5,30.36,WNW,290,0.0,0.0,64,0.00,,,0.02,Wunderground v.1.15,2013-02-10 01:45:00,
2013-02-09 20:50:00,33.2,24.1,30.36,WNW,290,0.0,0.0,69,0.00,,,0.02,Wunderground v.1.15,2013-02-10 01:50:00,
2013-02-09 20:55:00,33.0,22.9,30.36,WNW,290,0.0,0.0,66,0.00,,,0.02,Wunderground v.1.15,2013-02-10 01:55:00,
2013-02-09 21:00:00,32.7,24.3,30.36,WNW,290,0.0,0.0,71,0.00,,,0.02,Wunderground v.1.15,2013-02-10 02:00:00,
2013-02-09 21:05:00,32.4,23.0,30.36,WNW,290,0.0,0.0,68,0.00,,,0.02,Wunderground v.1.15,2013-02-10 02:05:00,
2013-02-09 21:10:00,32.2,22.1,30.37,WNW,290,0.0,0.0,66,0.00,,,0.02,Wunderground v.1.15,2013-02-10 02:10:00,
2013-02-09 21:15:00,32.1,22.7,30.37,WNW,290,0.0,0.0,68,0.00,,,0.02,Wunderground v.1.15,2013-02-10 02:15:00,
2013-02-09 21:20:00,32.0,23.0,30.37,WNW,290,0.0,0.0,69,0.00,,,0.02,Wunderground v.1.15,2013-02-10 02:20:00,
2013-02-09 21:25:00,31.8,22.1,30.38,WNW,290,0.0,0.0,67,0.00,,,0.02,Wunderground v.1.15,2013-02-10 02:25:00,
2013-02-09 21:30:00,31.7,22.3,30.38,WNW,290,0.0,0.0,68,0.00,,,0.02,Wunderground v.1.15,2013-02-10 02:30:00,
2013-02-09 21:35:00,31.4,21.0,30.38,WNW,290,0.0,0.0,65,0.00,,,0.02,Wunderground v.1.15,2013-02-10 02:35:00,
2013-02-09 21:40:00,31.2,22.9,30.38,WNW,290,0.0,0.0,71,0.00,,,0.02,Wunderground v.1.15,2013-02-10 02:40:00,
2013-02-09 21:50:00,30.8,22.5,30.38,WNW,290,0.0,0.0,71,0.00,,,0.02,Wunderground v.1.15,2013-02-10 02:50:00,
2013-02-09 21:55:00,30.6,22.0,30.38,WNW,290,0.0,0.0,70,0.00,,,0.02,Wunderground v.1.15,2013-02-10 02:55:00,
2013-02-09 22:00:00,30.4,21.8,30.38,WNW,290,0.0,0.0,70,0.00,,,0.02,Wunderground v.1.15,2013-02-10 03:00:00,
2013-02-09 22:10:00,30.3,23.0,30.38,WNW,290,0.0,0.0,74,0.00,,,0.02,Wunderground v.1.15,2013-02-10 03:10:00,
2013-02-09 22:15:00,30.1,22.5,30.37,WNW,290,0.0,0.0,73,0.00,,,0.02,Wunderground v.1.15,2013-02-10 03:15:00,
2013-02-09 22:20:00,29.9,22.3,30.37,WNW,290,0.0,0.0,73,0.00,,,0.02,Wunderground v.1.15,2013-02-10 03:20:00,
2013-02-09 22:25:00,29.8,21.9,30.37,WNW,290,0.0,0.0,72,0.00,,,0.02,Wunderground v.1.15,2013-02-10 03:25:00,
2013-02-09 22:30:00,29.7,23.1,30.38,WNW,290,0.0,0.0,76,0.00,,,0.02,Wunderground v.1.15,2013-02-10 03:30:00,
2013-02-09 22:40:00,29.5,21.6,30.38,WNW,290,0.0,0.0,72,0.00,,,0.02,Wunderground v.1.15,2013-02-10 03:40:00,
2013-02-09 22:45:00,29.4,21.5,30.38,WNW,290,0.0,0.0,72,0.00,,,0.02,Wunderground v.1.15,2013-02-10 03:45:00,
2013-02-09 22:50:00,29.2,21.3,30.38,WNW,290,0.0,0.0,72,0.00,,,0.02,Wunderground v.1.15,2013-02-10 03:50:00,
2013-02-09 22:55:00,29.1,21.5,30.39,WNW,290,0.0,0.0,73,0.00,,,0.02,Wunderground v.1.15,2013-02-10 03:55:00,
2013-02-09 23:00:00,29.0,21.7,30.39,WNW,290,0.0,0.0,74,0.00,,,0.02,Wunderground v.1.15,2013-02-10 04:00:00,
2013-02-09 23:05:00,28.9,22.3,30.39,WNW,290,0.0,0.0,76,0.00,,,0.02,Wunderground v.1.15,2013-02-10 04:05:00,
2013-02-09 23:10:00,28.7,22.1,30.38,WNW,290,0.0,0.0,76,0.00,,,0.02,Wunderground v.1.15,2013-02-10 04:10:00,
2013-02-09 23:15:00,28.7,22.1,30.38,WNW,290,0.0,0.0,76,0.00,,,0.02,Wunderground v.1.15,2013-02-10 04:15:00,
2013-02-09 23:20:00,28.6,22.0,30.38,WNW,290,0.0,0.0,76,0.00,,,0.02,Wunderground v.1.15,2013-02-10 04:20:00,
2013-02-09 23:25:00,28.5,21.6,30.38,WNW,290,0.0,0.0,75,0.00,,,0.02,Wunderground v.1.15,2013-02-10 04:25:00,
2013-02-09 23:30:00,28.5,21.3,30.38,WNW,290,0.0,0.0,74,0.00,,,0.02,Wunderground v.1.15,2013-02-10 04:30:00,
2013-02-09 23:35:00,28.4,21.2,30.38,WNW,290,0.0,0.0,74,0.00,,,0.02,Wunderground v.1.15,2013-02-10 04:35:00,
2013-02-09 23:40:00,28.4,20.8,30.38,WNW,290,0.0,0.0,73,0.00,,,0.02,Wunderground v.1.15,2013-02-10 04:40:00,
2013-02-09 23:45:00,28.3,20.7,30.38,WNW,290,0.0,0.0,73,0.00,,,0.02,Wunderground v.1.15,2013-02-10 04:45:00,
2013-02-09 23:50:00,28.2,21.6,30.38,WNW,290,0.0,0.0,76,0.00,,,0.02,Wunderground v.1.15,2013-02-10 04:50:00,
2013-02-09 23:55:00,28.2,22.2,30.39,WNW,290,0.0,0.0,78,0.00,,,0.02,Wunderground v.1.15,2013-02-10 04:55:00,